createdAt,value
2023-01-17T00:00:37.094Z,82.67
2023-01-17T00:01:37.015Z,83.09
2023-01-17T00:02:37.007Z,83.50
2023-01-17T00:03:36.965Z,83.50
2023-01-17T00:04:36.938Z,83.50
2023-01-17T00:05:36.927Z,83.50
2023-01-17T00:06:36.831Z,83.09
2023-01-17T00:07:36.789Z,83.61
2023-01-17T00:08:36.754Z,83.40
2023-01-17T00:09:36.727Z,83.50
2023-01-17T00:10:36.704Z,84.01
2023-01-17T00:11:36.701Z,83.71
2023-01-17T00:12:36.635Z,84.01
2023-01-17T00:13:36.595Z,83.61
2023-01-17T00:14:36.562Z,84.22
2023-01-17T00:15:36.541Z,82.88
2023-01-17T00:16:36.468Z,83.09
2023-01-17T00:17:36.489Z,83.81
2023-01-17T00:18:36.498Z,84.01
2023-01-17T00:19:36.387Z,83.50
2023-01-17T00:20:36.321Z,83.33
2023-01-17T00:21:36.279Z,82.88
2023-01-17T00:22:36.251Z,83.40
2023-01-17T00:23:36.269Z,83.50
2023-01-17T00:24:36.188Z,83.64
2023-01-17T00:25:36.140Z,84.01
2023-01-17T00:26:36.103Z,83.95
2023-01-17T00:27:36.069Z,83.64
2023-01-17T00:28:36.107Z,83.64
2023-01-17T00:29:35.995Z,83.44
2023-01-17T00:30:35.960Z,83.78
2023-01-17T00:31:35.979Z,83.99
2023-01-17T00:32:35.881Z,84.23
2023-01-17T00:33:35.852Z,84.65
2023-01-17T00:34:35.870Z,85.06
2023-01-17T00:35:35.779Z,85.63
2023-01-17T00:36:35.734Z,85.69
2023-01-17T00:37:35.700Z,85.38
2023-01-17T00:38:35.684Z,85.42
2023-01-17T00:39:35.622Z,86.00
2023-01-17T00:40:35.673Z,85.94
2023-01-17T00:41:35.551Z,86.04
2023-01-17T00:42:35.523Z,86.15
2023-01-17T00:43:35.477Z,86.25
2023-01-17T00:44:35.451Z,86.15
2023-01-17T00:45:35.409Z,86.15
2023-01-17T00:46:35.478Z,85.63
2023-01-17T00:47:35.328Z,85.73
2023-01-17T00:48:35.296Z,86.15
2023-01-17T00:49:35.267Z,86.25
2023-01-17T00:50:35.222Z,86.25
2023-01-17T00:51:35.190Z,86.45
2023-01-17T00:52:35.209Z,86.76
2023-01-17T00:53:35.108Z,86.25
2023-01-17T00:54:35.079Z,86.15
2023-01-17T00:55:35.034Z,86.00
2023-01-17T00:56:35.005Z,85.79
2023-01-17T00:57:35.025Z,85.38
2023-01-17T00:58:34.939Z,85.38
2023-01-17T00:59:34.888Z,85.34
2023-01-17T01:00:34.886Z,85.19
2023-01-17T01:01:35.030Z,84.88
2023-01-17T01:02:34.801Z,83.95
2023-01-17T01:03:34.810Z,84.37
2023-01-17T01:04:34.709Z,84.06
2023-01-17T01:05:34.700Z,83.85
2023-01-17T01:06:34.643Z,83.85
2023-01-17T01:07:34.604Z,83.54
2023-01-17T01:08:34.555Z,84.06
2023-01-17T01:09:34.578Z,84.06
2023-01-17T01:10:34.493Z,83.44
2023-01-17T01:11:34.443Z,83.54
2023-01-17T01:12:34.424Z,83.54
2023-01-17T01:13:34.380Z,83.95
2023-01-17T01:14:34.351Z,84.27
2023-01-17T01:15:34.364Z,84.06
2023-01-17T01:16:34.329Z,84.37
2023-01-17T01:17:34.271Z,84.06
2023-01-17T01:18:34.211Z,83.71
2023-01-17T01:19:34.174Z,83.81
2023-01-17T01:20:34.126Z,83.81
2023-01-17T01:21:34.133Z,83.50
2023-01-17T01:22:34.054Z,82.98
2023-01-17T01:23:34.006Z,83.81
2023-01-17T01:24:33.979Z,83.64
2023-01-17T01:25:33.941Z,83.61
2023-01-17T01:26:33.899Z,83.54
2023-01-17T01:27:33.965Z,83.75
2023-01-17T01:28:33.830Z,83.44
2023-01-17T01:29:33.798Z,84.06
2023-01-17T01:30:33.851Z,83.89
2023-01-17T01:31:33.770Z,84.51
2023-01-17T01:32:33.695Z,84.72
2023-01-17T01:33:33.654Z,85.13
2023-01-17T01:34:33.612Z,85.79
2023-01-17T01:35:33.571Z,85.79
2023-01-17T01:36:33.596Z,85.58
2023-01-17T01:37:33.514Z,85.27
2023-01-17T01:38:33.473Z,85.69
2023-01-17T01:39:33.425Z,85.48
2023-01-17T01:40:33.412Z,85.58
2023-01-17T01:41:33.354Z,85.27
2023-01-17T01:42:33.383Z,85.79
2023-01-17T01:43:33.288Z,85.79
2023-01-17T01:44:33.250Z,85.42
2023-01-17T01:45:33.261Z,86.25
2023-01-17T01:46:33.173Z,86.76
2023-01-17T01:47:33.143Z,86.45
2023-01-17T01:48:33.158Z,86.87
2023-01-17T01:49:33.056Z,87.28
2023-01-17T01:50:33.022Z,87.07
2023-01-17T01:51:32.991Z,87.18
2023-01-17T01:52:32.948Z,86.97
2023-01-17T01:53:32.913Z,86.45
2023-01-17T01:54:32.924Z,86.45
2023-01-17T01:55:32.841Z,87.07
2023-01-17T01:56:32.808Z,86.35
2023-01-17T01:57:32.796Z,86.97
2023-01-17T01:58:32.733Z,87.14
2023-01-17T01:59:32.696Z,87.04
2023-01-17T02:00:32.738Z,86.10
2023-01-17T02:01:32.725Z,87.18
2023-01-17T02:02:32.596Z,87.14
2023-01-17T02:03:32.595Z,87.24
2023-01-17T02:04:32.528Z,86.97
2023-01-17T02:05:32.482Z,87.38
2023-01-17T02:06:32.522Z,87.18
2023-01-17T02:07:32.465Z,86.83
2023-01-17T02:08:32.358Z,87.04
2023-01-17T02:09:32.340Z,86.97
2023-01-17T02:10:32.298Z,87.04
2023-01-17T02:11:32.262Z,87.04
2023-01-17T02:12:32.300Z,87.14
2023-01-17T02:13:32.176Z,87.18
2023-01-17T02:14:32.158Z,87.87
2023-01-17T02:15:32.110Z,87.04
2023-01-17T02:16:32.081Z,87.24
2023-01-17T02:17:32.031Z,87.14
2023-01-17T02:18:32.054Z,86.93
2023-01-17T02:19:31.954Z,86.72
2023-01-17T02:20:31.925Z,86.79
2023-01-17T02:21:31.882Z,86.52
2023-01-17T02:22:31.858Z,86.41
2023-01-17T02:23:31.818Z,86.37
2023-01-17T02:24:31.828Z,86.41
2023-01-17T02:25:31.739Z,86.68
2023-01-17T02:26:31.700Z,86.54
2023-01-17T02:27:31.660Z,86.27
2023-01-17T02:28:31.636Z,86.07
2023-01-17T02:29:31.678Z,86.13
2023-01-17T02:30:31.611Z,86.02
2023-01-17T02:31:31.533Z,86.29
2023-01-17T02:32:31.481Z,86.13
2023-01-17T02:33:31.443Z,86.71
2023-01-17T02:34:31.463Z,86.19
2023-01-17T02:35:31.427Z,86.50
2023-01-17T02:36:31.352Z,85.99
2023-01-17T02:37:31.298Z,86.50
2023-01-17T02:38:31.260Z,86.19
2023-01-17T02:39:31.220Z,86.19
2023-01-17T02:40:31.255Z,86.71
2023-01-17T02:41:31.155Z,86.60
2023-01-17T02:42:31.118Z,86.60
2023-01-17T02:43:31.079Z,86.91
2023-01-17T02:44:31.041Z,86.98
2023-01-17T02:45:31.154Z,86.81
2023-01-17T02:46:30.964Z,87.23
2023-01-17T02:47:30.934Z,87.18
2023-01-17T02:48:30.894Z,86.71
2023-01-17T02:49:30.859Z,86.91
2023-01-17T02:50:30.812Z,86.81
2023-01-17T02:51:30.838Z,87.39
2023-01-17T02:52:30.756Z,87.43
2023-01-17T02:53:30.718Z,87.81
2023-01-17T02:54:30.671Z,87.60
2023-01-17T02:55:30.638Z,87.64
2023-01-17T02:56:32.519Z,87.91
2023-01-17T02:57:30.624Z,87.43
2023-01-17T02:58:30.522Z,87.91
2023-01-17T02:59:30.493Z,87.60
2023-01-17T03:00:30.467Z,88.01
2023-01-17T03:01:30.620Z,87.39
2023-01-17T03:02:30.411Z,88.32
2023-01-17T03:03:30.349Z,88.01
2023-01-17T03:04:30.309Z,88.32
2023-01-17T03:05:30.275Z,88.32
2023-01-17T03:06:30.306Z,88.64
2023-01-17T03:07:30.195Z,88.12
2023-01-17T03:08:30.162Z,88.46
2023-01-17T03:09:30.154Z,88.78
2023-01-17T03:10:30.092Z,88.57
2023-01-17T03:11:30.054Z,88.74
2023-01-17T03:12:30.088Z,88.64
2023-01-17T03:13:29.980Z,88.78
2023-01-17T03:14:29.948Z,88.88
2023-01-17T03:15:29.906Z,89.36
2023-01-17T03:16:29.948Z,89.29
2023-01-17T03:17:29.901Z,89.40
2023-01-17T03:18:29.804Z,89.40
2023-01-17T03:19:29.760Z,89.77
2023-01-17T03:20:29.732Z,89.61
2023-01-17T03:21:29.698Z,89.50
2023-01-17T03:22:29.720Z,89.25
2023-01-17T03:23:29.611Z,89.29
2023-01-17T03:24:29.581Z,89.25
2023-01-17T03:25:29.545Z,89.67
2023-01-17T03:26:29.502Z,89.36
2023-01-17T03:27:29.527Z,89.50
2023-01-17T03:28:29.435Z,89.40
2023-01-17T03:29:29.400Z,89.67
2023-01-17T03:30:29.394Z,89.77
2023-01-17T03:31:29.340Z,89.87
2023-01-17T03:32:29.314Z,89.87
2023-01-17T03:33:29.360Z,90.19
2023-01-17T03:34:29.219Z,89.98
2023-01-17T03:35:29.199Z,89.98
2023-01-17T03:36:29.147Z,89.98
2023-01-17T03:37:29.114Z,89.98
2023-01-17T03:38:29.075Z,89.77
2023-01-17T03:39:29.093Z,90.04
2023-01-17T03:40:28.997Z,89.83
2023-01-17T03:41:28.967Z,89.98
2023-01-17T03:42:28.923Z,89.94
2023-01-17T03:43:28.900Z,89.94
2023-01-17T03:44:28.919Z,89.94
2023-01-17T03:45:28.834Z,89.94
2023-01-17T03:46:28.777Z,89.83
2023-01-17T03:47:28.752Z,89.42
2023-01-17T03:48:28.717Z,89.83
2023-01-17T03:49:28.729Z,90.66
2023-01-17T03:50:28.636Z,91.07
2023-01-17T03:51:28.604Z,91.07
2023-01-17T03:52:28.564Z,90.66
2023-01-17T03:53:28.523Z,90.66
2023-01-17T03:54:28.559Z,90.97
2023-01-17T03:55:28.478Z,90.97
2023-01-17T03:56:28.426Z,90.77
2023-01-17T03:57:28.378Z,90.87
2023-01-17T03:58:28.349Z,91.28
2023-01-17T03:59:28.316Z,90.97
2023-01-17T04:00:28.327Z,90.77
2023-01-17T04:01:28.366Z,90.97
2023-01-17T04:02:28.244Z,90.97
2023-01-17T04:03:28.183Z,90.31
2023-01-17T04:04:28.145Z,90.72
2023-01-17T04:05:28.166Z,90.87
2023-01-17T04:06:28.052Z,90.72
2023-01-17T04:07:28.026Z,90.45
2023-01-17T04:08:27.986Z,89.69
2023-01-17T04:09:27.949Z,89.89
2023-01-17T04:10:27.916Z,89.38
2023-01-17T04:11:27.969Z,89.38
2023-01-17T04:12:27.837Z,89.69
2023-01-17T04:13:27.804Z,89.38
2023-01-17T04:14:27.775Z,89.79
2023-01-17T04:15:27.726Z,89.89
2023-01-17T04:16:27.746Z,89.79
2023-01-17T04:17:27.709Z,89.69
2023-01-17T04:18:27.653Z,89.79
2023-01-17T04:19:27.584Z,89.89
2023-01-17T04:20:27.569Z,90.10
2023-01-17T04:21:27.583Z,89.95
2023-01-17T04:22:27.482Z,90.10
2023-01-17T04:23:27.454Z,89.38
2023-01-17T04:24:27.406Z,89.79
2023-01-17T04:25:27.368Z,90.10
2023-01-17T04:26:27.337Z,89.89
2023-01-17T04:27:27.347Z,89.79
2023-01-17T04:28:27.264Z,89.89
2023-01-17T04:29:27.223Z,89.79
2023-01-17T04:30:27.189Z,89.79
2023-01-17T04:31:27.199Z,89.89
2023-01-17T04:32:27.123Z,90.06
2023-01-17T04:33:27.143Z,89.89
2023-01-17T04:34:27.047Z,89.89
2023-01-17T04:35:27.004Z,90.06
2023-01-17T04:36:26.972Z,89.23
2023-01-17T04:37:26.937Z,90.10
2023-01-17T04:38:26.964Z,89.79
2023-01-17T04:39:26.911Z,89.89
2023-01-17T04:40:26.833Z,89.65
2023-01-17T04:41:26.796Z,89.89
2023-01-17T04:42:26.777Z,90.10
2023-01-17T04:43:26.721Z,89.17
2023-01-17T04:44:26.683Z,89.13
2023-01-17T04:45:26.706Z,89.38
2023-01-17T04:46:26.684Z,89.54
2023-01-17T04:47:26.572Z,89.48
2023-01-17T04:48:26.549Z,88.92
2023-01-17T04:49:26.505Z,89.34
2023-01-17T04:50:26.464Z,88.76
2023-01-17T04:51:26.493Z,89.13
2023-01-17T04:52:26.387Z,88.96
2023-01-17T04:53:26.353Z,88.96
2023-01-17T04:54:26.323Z,89.13
2023-01-17T04:55:26.284Z,89.13
2023-01-17T04:56:26.248Z,89.23
2023-01-17T04:57:26.268Z,89.13
2023-01-17T04:58:26.173Z,88.86
2023-01-17T04:59:26.190Z,89.13
2023-01-17T05:00:26.123Z,89.44
2023-01-17T05:01:26.147Z,89.34
2023-01-17T05:02:26.068Z,88.96
2023-01-17T05:03:25.999Z,89.13
2023-01-17T05:04:26.025Z,89.34
2023-01-17T05:05:25.919Z,89.38
2023-01-17T05:06:25.892Z,89.17
2023-01-17T05:07:25.871Z,88.51
2023-01-17T05:08:25.812Z,89.28
2023-01-17T05:09:25.779Z,88.31
2023-01-17T05:10:25.802Z,88.61
2023-01-17T05:11:25.712Z,88.65
2023-01-17T05:12:25.667Z,88.61
2023-01-17T05:13:25.658Z,88.92
2023-01-17T05:14:25.619Z,88.65
2023-01-17T05:15:25.713Z,88.76
2023-01-17T05:16:25.519Z,88.24
2023-01-17T05:17:25.478Z,88.34
2023-01-17T05:18:25.446Z,88.04
2023-01-17T05:19:25.415Z,88.65
2023-01-17T05:20:25.379Z,88.24
2023-01-17T05:21:25.409Z,88.76
2023-01-17T05:22:25.298Z,88.55
2023-01-17T05:23:25.272Z,88.86
2023-01-17T05:24:25.233Z,88.24
2023-01-17T05:25:25.220Z,88.76
2023-01-17T05:26:25.239Z,88.96
2023-01-17T05:27:25.170Z,88.71
2023-01-17T05:28:25.098Z,88.65
2023-01-17T05:29:25.090Z,88.65
2023-01-17T05:30:25.022Z,88.65
2023-01-17T05:31:25.163Z,88.76
2023-01-17T05:32:24.942Z,89.17
2023-01-17T05:33:24.909Z,89.38
2023-01-17T05:34:24.877Z,89.48
2023-01-17T05:35:24.837Z,89.17
2023-01-17T05:36:24.796Z,89.38
2023-01-17T05:37:24.827Z,89.69
2023-01-17T05:38:24.730Z,89.07
2023-01-17T05:39:24.687Z,89.38
2023-01-17T05:40:24.655Z,89.83
2023-01-17T05:41:24.628Z,90.10
2023-01-17T05:42:24.642Z,89.89
2023-01-17T05:43:24.544Z,89.79
2023-01-17T05:44:24.509Z,89.79
2023-01-17T05:45:24.495Z,89.79
2023-01-17T05:46:24.470Z,90.00
2023-01-17T05:47:24.474Z,89.28
2023-01-17T05:48:24.375Z,89.79
2023-01-17T05:49:24.323Z,89.69
2023-01-17T05:50:24.284Z,89.83
2023-01-17T05:51:24.252Z,89.32
2023-01-17T05:52:24.212Z,90.31
2023-01-17T05:53:24.247Z,89.89
2023-01-17T05:54:24.150Z,90.04
2023-01-17T05:55:24.110Z,89.94
2023-01-17T05:56:24.069Z,90.25
2023-01-17T05:57:24.036Z,90.35
2023-01-17T05:58:24.047Z,89.94
2023-01-17T05:59:36.516Z,90.35
2023-01-17T06:00:23.931Z,90.35
2023-01-17T06:01:24.046Z,90.72
2023-01-17T06:02:23.867Z,90.66
2023-01-17T06:03:23.820Z,90.66
2023-01-17T06:04:23.843Z,90.56
2023-01-17T06:05:23.743Z,90.35
2023-01-17T06:06:23.704Z,90.87
2023-01-17T06:07:23.666Z,90.87
2023-01-17T06:08:23.640Z,90.35
2023-01-17T06:09:23.594Z,90.45
2023-01-17T06:10:23.627Z,90.56
2023-01-17T06:11:23.535Z,90.77
2023-01-17T06:12:23.499Z,90.77
2023-01-17T06:13:23.452Z,90.56
2023-01-17T06:14:23.415Z,90.66
2023-01-17T06:15:23.378Z,90.66
2023-01-17T06:16:23.504Z,90.77
2023-01-17T06:17:23.310Z,90.56
2023-01-17T06:18:23.283Z,90.66
2023-01-17T06:19:23.230Z,90.77
2023-01-17T06:20:23.201Z,90.66
2023-01-17T06:21:23.164Z,90.35
2023-01-17T06:22:23.179Z,90.66
2023-01-17T06:23:23.097Z,90.66
2023-01-17T06:24:23.052Z,90.77
2023-01-17T06:25:23.015Z,90.45
2023-01-17T06:26:23.040Z,90.04
2023-01-17T06:27:22.946Z,90.35
2023-01-17T06:28:22.919Z,90.04
2023-01-17T06:29:22.873Z,90.66
2023-01-17T06:30:22.849Z,90.25
2023-01-17T06:31:22.945Z,90.66
2023-01-17T06:32:22.769Z,90.56
2023-01-17T06:33:22.731Z,90.87
2023-01-17T06:34:22.697Z,90.45
2023-01-17T06:35:22.663Z,90.25
2023-01-17T06:36:22.622Z,89.94
2023-01-17T06:37:22.635Z,90.14
2023-01-17T06:38:22.538Z,89.83
2023-01-17T06:39:22.513Z,89.52
2023-01-17T06:40:22.475Z,89.73
2023-01-17T06:41:22.441Z,90.14
2023-01-17T06:42:22.469Z,89.56
2023-01-17T06:43:22.378Z,89.83
2023-01-17T06:44:22.335Z,89.94
2023-01-17T06:45:22.293Z,89.87
2023-01-17T06:46:22.264Z,89.83
2023-01-17T06:47:22.211Z,89.73
2023-01-17T06:48:22.245Z,89.42
2023-01-17T06:49:22.154Z,89.94
2023-01-17T06:50:22.112Z,89.52
2023-01-17T06:51:22.079Z,90.04
2023-01-17T06:52:22.093Z,89.77
2023-01-17T06:53:21.991Z,89.87
2023-01-17T06:54:22.036Z,89.87
2023-01-17T06:55:21.929Z,89.98
2023-01-17T06:56:21.893Z,89.87
2023-01-17T06:57:21.854Z,89.87
2023-01-17T06:58:21.817Z,89.87
2023-01-17T06:59:21.779Z,89.87
2023-01-17T07:00:21.857Z,89.98
2023-01-17T07:01:21.817Z,90.50
2023-01-17T07:02:21.665Z,90.29
2023-01-17T07:03:21.637Z,90.50
2023-01-17T07:04:21.604Z,90.29
2023-01-17T07:05:21.553Z,90.50
2023-01-17T07:06:21.581Z,89.98
2023-01-17T07:07:21.523Z,89.87
2023-01-17T07:08:21.466Z,89.77
2023-01-17T07:09:21.410Z,89.87
2023-01-17T07:10:21.389Z,89.87
2023-01-17T07:11:21.346Z,90.08
2023-01-17T07:12:21.370Z,89.46
2023-01-17T07:13:21.259Z,89.98
2023-01-17T07:14:21.232Z,89.87
2023-01-17T07:15:21.192Z,89.46
2023-01-17T07:16:21.210Z,89.87
2023-01-17T07:17:21.127Z,89.98
2023-01-17T07:18:21.149Z,89.98
2023-01-17T07:19:21.067Z,89.73
2023-01-17T07:20:21.010Z,89.46
2023-01-17T07:21:21.028Z,89.77
2023-01-17T07:22:20.933Z,89.98
2023-01-17T07:23:20.914Z,89.52
2023-01-17T07:24:20.865Z,89.94
2023-01-17T07:25:20.832Z,89.32
2023-01-17T07:26:20.845Z,90.14
2023-01-17T07:27:20.757Z,89.98
2023-01-17T07:28:20.719Z,89.87
2023-01-17T07:29:20.690Z,90.29
2023-01-17T07:30:20.635Z,90.60
2023-01-17T07:31:20.711Z,90.70
2023-01-17T07:32:20.597Z,90.50
2023-01-17T07:33:20.543Z,90.60
2023-01-17T07:34:20.495Z,91.32
2023-01-17T07:35:20.494Z,90.91
2023-01-17T07:36:20.502Z,91.32
2023-01-17T07:37:20.392Z,91.11
2023-01-17T07:38:20.381Z,91.36
2023-01-17T07:39:20.307Z,91.32
2023-01-17T07:40:20.278Z,91.47
2023-01-17T07:41:20.246Z,91.32
2023-01-17T07:42:20.632Z,91.63
2023-01-17T07:43:20.163Z,91.53
2023-01-17T07:44:20.138Z,91.32
2023-01-17T07:45:20.105Z,91.53
2023-01-17T07:46:20.086Z,91.32
2023-01-17T07:47:20.024Z,91.47
2023-01-17T07:48:20.046Z,91.42
2023-01-17T07:49:20.063Z,91.32
2023-01-17T07:50:19.910Z,91.01
2023-01-17T07:51:19.887Z,90.91
2023-01-17T07:52:19.852Z,90.91
2023-01-17T07:53:19.816Z,90.91
2023-01-17T07:54:19.824Z,90.60
2023-01-17T07:55:19.732Z,91.01
2023-01-17T07:56:19.696Z,90.80
2023-01-17T07:57:19.655Z,90.50
2023-01-17T07:58:19.631Z,90.70
2023-01-17T07:59:19.584Z,90.91
2023-01-17T08:00:19.637Z,89.94
2023-01-17T08:01:19.644Z,90.45
2023-01-17T08:02:19.466Z,89.83
2023-01-17T08:03:19.444Z,89.94
2023-01-17T08:04:19.394Z,90.19
2023-01-17T08:05:19.374Z,90.19
2023-01-17T08:06:19.391Z,90.14
2023-01-17T08:07:19.284Z,90.14
2023-01-17T08:08:19.251Z,89.32
2023-01-17T08:09:19.217Z,89.42
2023-01-17T08:10:19.181Z,89.11
2023-01-17T08:11:19.147Z,89.32
2023-01-17T08:12:19.153Z,89.42
2023-01-17T08:13:19.067Z,89.01
2023-01-17T08:14:19.037Z,89.22
2023-01-17T08:15:19.011Z,89.11
2023-01-17T08:16:18.959Z,88.90
2023-01-17T08:17:18.926Z,89.22
2023-01-17T08:18:18.963Z,88.70
2023-01-17T08:19:18.867Z,89.22
2023-01-17T08:20:18.809Z,89.22
2023-01-17T08:21:18.843Z,88.70
2023-01-17T08:22:18.744Z,88.28
2023-01-17T08:23:18.710Z,88.49
2023-01-17T08:24:18.724Z,88.49
2023-01-17T08:25:18.650Z,88.49
2023-01-17T08:26:18.594Z,88.18
2023-01-17T08:27:18.610Z,88.39
2023-01-17T08:28:18.538Z,88.18
2023-01-17T08:29:18.493Z,88.04
2023-01-17T08:30:18.451Z,88.18
2023-01-17T08:31:18.430Z,87.87
2023-01-17T08:32:18.436Z,88.14
2023-01-17T08:33:18.351Z,88.14
2023-01-17T08:34:18.319Z,87.52
2023-01-17T08:35:18.270Z,87.21
2023-01-17T08:36:18.266Z,87.52
2023-01-17T08:37:18.212Z,87.83
2023-01-17T08:38:18.214Z,87.10
2023-01-17T08:39:18.125Z,87.10
2023-01-17T08:40:18.100Z,86.90
2023-01-17T08:41:18.054Z,87.31
2023-01-17T08:42:18.023Z,87.31
2023-01-17T08:43:18.035Z,87.31
2023-01-17T08:44:17.946Z,87.21
2023-01-17T08:45:17.907Z,87.00
2023-01-17T08:46:17.876Z,86.79
2023-01-17T08:47:17.833Z,87.00
2023-01-17T08:48:17.874Z,86.59
2023-01-17T08:49:17.763Z,86.94
2023-01-17T08:50:17.727Z,86.21
2023-01-17T08:51:17.693Z,86.38
2023-01-17T08:52:17.654Z,86.28
2023-01-17T08:53:17.619Z,86.69
2023-01-17T08:54:17.643Z,85.76
2023-01-17T08:55:17.546Z,85.86
2023-01-17T08:56:17.541Z,85.45
2023-01-17T08:57:17.472Z,85.45
2023-01-17T08:58:17.435Z,85.45
2023-01-17T08:59:17.394Z,85.31
2023-01-17T09:00:17.424Z,85.45
2023-01-17T09:01:17.397Z,85.52
2023-01-17T09:02:17.286Z,84.69
2023-01-17T09:03:17.254Z,84.79
2023-01-17T09:04:17.283Z,84.79
2023-01-17T09:05:17.178Z,83.76
2023-01-17T09:06:17.257Z,83.86
2023-01-17T09:07:17.126Z,83.86
2023-01-17T09:08:17.081Z,83.86
2023-01-17T09:09:17.042Z,83.20
2023-01-17T09:10:17.009Z,83.51
2023-01-17T09:11:16.963Z,83.41
2023-01-17T09:12:16.980Z,83.31
2023-01-17T09:13:16.902Z,83.20
2023-01-17T09:14:16.856Z,83.27
2023-01-17T09:15:16.824Z,82.86
2023-01-17T09:16:16.833Z,83.17
2023-01-17T09:17:16.739Z,82.38
2023-01-17T09:18:16.760Z,83.51
2023-01-17T09:19:16.675Z,83.51
2023-01-17T09:20:16.639Z,83.62
2023-01-17T09:21:16.602Z,83.86
2023-01-17T09:22:16.591Z,83.86
2023-01-17T09:23:16.609Z,84.79
2023-01-17T09:24:16.506Z,85.21
2023-01-17T09:25:16.459Z,85.41
2023-01-17T09:26:16.419Z,85.21
2023-01-17T09:27:16.385Z,85.21
2023-01-17T09:28:16.349Z,85.10
2023-01-17T09:29:16.370Z,85.17
2023-01-17T09:30:16.277Z,85.21
2023-01-17T09:31:17.593Z,85.52
2023-01-17T09:32:16.208Z,85.31
2023-01-17T09:33:16.179Z,85.41
2023-01-17T09:34:16.132Z,84.89
2023-01-17T09:35:16.151Z,84.89
2023-01-17T09:36:16.064Z,85.52
2023-01-17T09:37:16.019Z,85.83
2023-01-17T09:38:15.987Z,85.41
2023-01-17T09:39:15.954Z,85.93
2023-01-17T09:40:15.920Z,86.18
2023-01-17T09:41:15.952Z,86.11
2023-01-17T09:42:15.847Z,86.49
2023-01-17T09:43:15.827Z,87.00
2023-01-17T09:44:15.772Z,86.69
2023-01-17T09:45:15.740Z,86.63
2023-01-17T09:46:15.744Z,86.79
2023-01-17T09:47:15.746Z,86.94
2023-01-17T09:48:15.634Z,86.79
2023-01-17T09:49:15.590Z,86.21
2023-01-17T09:50:15.559Z,86.52
2023-01-17T09:51:15.539Z,86.52
2023-01-17T09:52:15.482Z,85.91
2023-01-17T09:53:15.555Z,85.91
2023-01-17T09:54:15.431Z,86.28
2023-01-17T09:55:15.381Z,86.11
2023-01-17T09:56:15.340Z,86.01
2023-01-17T09:57:15.313Z,86.11
2023-01-17T09:58:15.265Z,85.97
2023-01-17T09:59:18.535Z,85.86
2023-01-17T10:00:15.202Z,85.97
2023-01-17T10:01:15.285Z,85.76
2023-01-17T10:02:15.290Z,85.45
2023-01-17T10:03:15.205Z,85.55
2023-01-17T10:04:15.140Z,85.76
2023-01-17T10:05:15.070Z,85.93
2023-01-17T10:06:14.981Z,85.31
2023-01-17T10:07:14.956Z,85.14
2023-01-17T10:08:14.912Z,84.83
2023-01-17T10:09:14.886Z,85.76
2023-01-17T10:10:14.835Z,85.76
2023-01-17T10:11:14.867Z,85.66
2023-01-17T10:12:14.768Z,85.45
2023-01-17T10:13:14.732Z,85.52
2023-01-17T10:14:14.699Z,85.52
2023-01-17T10:15:14.665Z,85.62
2023-01-17T10:16:14.676Z,85.41
2023-01-17T10:17:14.640Z,85.52
2023-01-17T10:18:28.905Z,85.52
2023-01-17T10:19:14.515Z,85.62
2023-01-17T10:20:14.478Z,85.52
2023-01-17T10:21:14.444Z,85.66
2023-01-17T10:22:14.413Z,86.01
2023-01-17T10:23:14.430Z,86.21
2023-01-17T10:24:14.394Z,86.73
2023-01-17T10:25:14.296Z,87.18
2023-01-17T10:26:14.281Z,87.04
2023-01-17T10:27:14.275Z,87.46
2023-01-17T10:28:14.196Z,87.49
2023-01-17T10:29:14.203Z,87.35
2023-01-17T10:30:14.118Z,87.49
2023-01-17T10:31:14.139Z,88.01
2023-01-17T10:32:14.053Z,87.76
2023-01-17T10:33:14.003Z,87.70
2023-01-17T10:34:13.974Z,88.22
2023-01-17T10:35:14.950Z,88.74
2023-01-17T10:36:13.909Z,87.70
2023-01-17T10:37:13.864Z,88.22
2023-01-17T10:38:13.827Z,88.28
2023-01-17T10:39:13.793Z,88.64
2023-01-17T10:40:13.753Z,88.18
2023-01-17T10:41:13.765Z,88.49
2023-01-17T10:42:13.677Z,87.56
2023-01-17T10:43:13.641Z,87.97
2023-01-17T10:44:13.607Z,87.76
2023-01-17T10:45:13.572Z,87.04
2023-01-17T10:46:13.582Z,87.39
2023-01-17T10:47:13.559Z,87.56
2023-01-17T10:48:13.468Z,87.87
2023-01-17T10:49:13.429Z,87.76
2023-01-17T10:50:13.462Z,88.28
2023-01-17T10:51:13.362Z,89.42
2023-01-17T10:52:13.351Z,89.36
2023-01-17T10:53:13.342Z,89.46
2023-01-17T10:54:13.247Z,90.02
2023-01-17T10:55:13.234Z,90.95
2023-01-17T10:56:13.175Z,91.20
2023-01-17T10:57:13.149Z,91.35
2023-01-17T10:58:13.109Z,92.80
2023-01-17T10:59:13.112Z,92.63
2023-01-17T11:00:13.051Z,92.53
2023-01-17T11:01:13.169Z,93.46
2023-01-17T11:02:13.008Z,93.35
2023-01-17T11:03:12.927Z,93.46
2023-01-17T11:04:12.906Z,93.29
2023-01-17T11:05:12.916Z,94.23
2023-01-17T11:06:12.830Z,93.81
2023-01-17T11:07:12.798Z,93.60
2023-01-17T11:08:12.747Z,94.17
2023-01-17T11:09:12.728Z,94.43
2023-01-17T11:10:12.685Z,94.33
2023-01-17T11:11:12.685Z,94.43
2023-01-17T11:12:12.604Z,94.60
2023-01-17T11:13:12.571Z,94.39
2023-01-17T11:14:12.527Z,94.24
2023-01-17T11:15:12.517Z,93.83
2023-01-17T11:16:12.507Z,93.06
2023-01-17T11:17:12.482Z,92.85
2023-01-17T11:18:12.412Z,92.55
2023-01-17T11:19:12.346Z,93.23
2023-01-17T11:20:12.309Z,93.23
2023-01-17T11:21:12.384Z,93.12
2023-01-17T11:22:12.234Z,93.54
2023-01-17T11:23:12.443Z,93.18
2023-01-17T11:24:12.161Z,93.80
2023-01-17T11:25:12.142Z,94.16
2023-01-17T11:26:12.105Z,93.23
2023-01-17T11:27:12.053Z,92.85
2023-01-17T11:28:12.038Z,92.91
2023-01-17T11:29:12.042Z,93.48
2023-01-17T11:30:11.936Z,93.48
2023-01-17T11:31:11.969Z,93.99
2023-01-17T11:32:11.882Z,93.64
2023-01-17T11:33:11.859Z,93.74
2023-01-17T11:34:11.797Z,93.43
2023-01-17T11:35:11.830Z,93.43
2023-01-17T11:36:11.727Z,92.50
2023-01-17T11:37:11.713Z,93.02
2023-01-17T11:38:11.659Z,93.12
2023-01-17T11:39:11.619Z,92.30
2023-01-17T11:40:11.584Z,92.25
2023-01-17T11:41:11.597Z,92.05
2023-01-17T11:42:11.520Z,91.74
2023-01-17T11:43:11.479Z,92.25
2023-01-17T11:44:11.444Z,91.07
2023-01-17T11:45:11.393Z,90.91
2023-01-17T11:46:11.439Z,90.70
2023-01-17T11:47:11.384Z,89.98
2023-01-17T11:48:11.288Z,89.83
2023-01-17T11:49:11.254Z,89.01
2023-01-17T11:50:11.234Z,88.28
2023-01-17T11:51:11.175Z,88.14
2023-01-17T11:52:11.144Z,87.62
2023-01-17T11:53:11.160Z,87.73
2023-01-17T11:54:11.076Z,87.46
2023-01-17T11:55:11.036Z,87.25
2023-01-17T11:56:11.007Z,87.35
2023-01-17T11:57:10.971Z,86.21
2023-01-17T11:58:10.925Z,85.11
2023-01-17T11:59:10.951Z,85.11
2023-01-17T12:00:10.861Z,85.53
2023-01-17T12:01:10.846Z,85.18
2023-01-17T12:02:10.779Z,85.32
2023-01-17T12:03:10.744Z,85.63
2023-01-17T12:04:10.727Z,86.05
2023-01-17T12:05:10.751Z,86.21
2023-01-17T12:06:10.635Z,86.94
2023-01-17T12:07:10.673Z,86.83
2023-01-17T12:08:10.568Z,86.21
2023-01-17T12:09:10.525Z,85.60
2023-01-17T12:10:10.497Z,85.42
2023-01-17T12:11:10.522Z,84.91
2023-01-17T12:12:10.424Z,85.42
2023-01-17T12:13:10.380Z,84.91
2023-01-17T12:14:10.358Z,84.91
2023-01-17T12:15:10.329Z,85.11
2023-01-17T12:16:10.307Z,85.42
2023-01-17T12:17:10.322Z,85.32
2023-01-17T12:18:10.241Z,84.60
2023-01-17T12:19:10.171Z,84.81
2023-01-17T12:20:10.132Z,84.97
2023-01-17T12:21:10.095Z,84.97
2023-01-17T12:22:10.049Z,85.08
2023-01-17T12:23:10.060Z,84.87
2023-01-17T12:24:09.981Z,84.97
2023-01-17T12:25:10.039Z,85.14
2023-01-17T12:26:09.903Z,84.63
2023-01-17T12:27:09.878Z,84.83
2023-01-17T12:28:09.841Z,85.35
2023-01-17T12:29:10.528Z,84.94
2023-01-17T12:30:09.816Z,85.00
2023-01-17T12:31:09.791Z,85.14
2023-01-17T12:32:14.925Z,84.52
2023-01-17T12:33:10.427Z,84.73
2023-01-17T12:34:11.423Z,84.52
2023-01-17T12:35:09.588Z,83.70
2023-01-17T12:36:09.609Z,83.90
2023-01-17T12:37:09.507Z,83.80
2023-01-17T12:38:09.473Z,83.65
2023-01-17T12:39:09.430Z,83.70
2023-01-17T12:40:09.401Z,83.86
2023-01-17T12:41:09.359Z,83.65
2023-01-17T12:42:09.379Z,82.83
2023-01-17T12:43:09.292Z,83.20
2023-01-17T12:44:09.253Z,82.31
2023-01-17T12:45:09.220Z,82.42
2023-01-17T12:46:09.932Z,83.34
2023-01-17T12:47:09.147Z,83.14
2023-01-17T12:48:09.106Z,83.55
2023-01-17T12:49:09.104Z,81.90
2023-01-17T12:50:09.033Z,81.84
2023-01-17T12:51:09.073Z,81.73
2023-01-17T12:52:09.012Z,81.63